sensor_id;sensor_type;location;lat;lon;timestamp;P1;durP1;ratioP1;P2;durP2;ratioP2
12171;SDS011;6149;52.418;13.668;2024-02-21T00:01:14;18.73;;;6.97;;
12171;SDS011;6149;52.418;13.668;2024-02-21T00:03:41;22.70;;;7.60;;
12171;SDS011;6149;52.418;13.668;2024-02-21T00:06:07;19.80;;;6.80;;
12171;SDS011;6149;52.418;13.668;2024-02-21T00:08:34;19.17;;;7.20;;
12171;SDS011;6149;52.418;13.668;2024-02-21T00:11:02;18.97;;;7.40;;
12171;SDS011;6149;52.418;13.668;2024-02-21T00:13:29;17.50;;;6.70;;
12171;SDS011;6149;52.418;13.668;2024-02-21T00:15:55;23.60;;;7.27;;
12171;SDS011;6149;52.418;13.668;2024-02-21T00:18:23;21.10;;;7.00;;
12171;SDS011;6149;52.418;13.668;2024-02-21T00:20:49;20.10;;;6.97;;
12171;SDS011;6149;52.418;13.668;2024-02-21T00:23:16;18.30;;;7.23;;
12171;SDS011;6149;52.418;13.668;2024-02-21T00:25:42;16.17;;;6.80;;
12171;SDS011;6149;52.418;13.668;2024-02-21T00:28:10;16.50;;;6.23;;
12171;SDS011;6149;52.418;13.668;2024-02-21T00:30:37;17.53;;;6.10;;
12171;SDS011;6149;52.418;13.668;2024-02-21T00:33:04;18.33;;;6.77;;
12171;SDS011;6149;52.418;13.668;2024-02-21T00:35:30;17.53;;;6.67;;
12171;SDS011;6149;52.418;13.668;2024-02-21T00:37:57;17.73;;;6.40;;
12171;SDS011;6149;52.418;13.668;2024-02-21T00:40:24;20.60;;;5.90;;
12171;SDS011;6149;52.418;13.668;2024-02-21T00:42:51;14.70;;;6.20;;
12171;SDS011;6149;52.418;13.668;2024-02-21T00:45:19;14.87;;;5.80;;
12171;SDS011;6149;52.418;13.668;2024-02-21T00:47:45;18.97;;;5.70;;
12171;SDS011;6149;52.418;13.668;2024-02-21T00:50:12;16.87;;;5.70;;
12171;SDS011;6149;52.418;13.668;2024-02-21T00:52:39;22.77;;;6.33;;
12171;SDS011;6149;52.418;13.668;2024-02-21T00:55:06;23.07;;;6.27;;
12171;SDS011;6149;52.418;13.668;2024-02-21T00:57:34;16.20;;;6.30;;
12171;SDS011;6149;52.418;13.668;2024-02-21T01:00:01;13.97;;;6.07;;
12171;SDS011;6149;52.418;13.668;2024-02-21T01:02:29;17.87;;;6.20;;
12171;SDS011;6149;52.418;13.668;2024-02-21T01:04:56;15.90;;;5.93;;
12171;SDS011;6149;52.418;13.668;2024-02-21T01:07:23;19.20;;;6.10;;
12171;SDS011;6149;52.418;13.668;2024-02-21T01:09:49;21.00;;;7.10;;
12171;SDS011;6149;52.418;13.668;2024-02-21T01:12:17;18.07;;;6.47;;
12171;SDS011;6149;52.418;13.668;2024-02-21T01:14:44;20.30;;;6.43;;
12171;SDS011;6149;52.418;13.668;2024-02-21T01:17:11;17.10;;;6.53;;
12171;SDS011;6149;52.418;13.668;2024-02-21T01:19:39;22.00;;;7.00;;
12171;SDS011;6149;52.418;13.668;2024-02-21T01:22:05;20.93;;;6.53;;
12171;SDS011;6149;52.418;13.668;2024-02-21T01:24:32;20.40;;;5.83;;
12171;SDS011;6149;52.418;13.668;2024-02-21T01:26:59;17.10;;;6.80;;
12171;SDS011;6149;52.418;13.668;2024-02-21T01:29:25;11.37;;;5.20;;
12171;SDS011;6149;52.418;13.668;2024-02-21T01:31:52;20.23;;;6.53;;
12171;SDS011;6149;52.418;13.668;2024-02-21T01:34:18;17.20;;;6.40;;
12171;SDS011;6149;52.418;13.668;2024-02-21T01:36:46;10.33;;;5.47;;
12171;SDS011;6149;52.418;13.668;2024-02-21T01:39:13;17.30;;;6.17;;
12171;SDS011;6149;52.418;13.668;2024-02-21T01:41:39;17.37;;;6.57;;
12171;SDS011;6149;52.418;13.668;2024-02-21T01:44:06;14.27;;;6.03;;
12171;SDS011;6149;52.418;13.668;2024-02-21T01:46:32;15.03;;;6.40;;
12171;SDS011;6149;52.418;13.668;2024-02-21T01:49:00;16.40;;;6.47;;
12171;SDS011;6149;52.418;13.668;2024-02-21T01:51:27;16.87;;;6.13;;
12171;SDS011;6149;52.418;13.668;2024-02-21T01:53:56;16.27;;;5.80;;
12171;SDS011;6149;52.418;13.668;2024-02-21T01:56:24;21.23;;;6.23;;
12171;SDS011;6149;52.418;13.668;2024-02-21T01:58:51;13.30;;;5.43;;
12171;SDS011;6149;52.418;13.668;2024-02-21T02:01:17;18.80;;;5.90;;
12171;SDS011;6149;52.418;13.668;2024-02-21T02:03:45;17.30;;;6.30;;
12171;SDS011;6149;52.418;13.668;2024-02-21T02:06:12;16.17;;;5.67;;
12171;SDS011;6149;52.418;13.668;2024-02-21T02:08:39;19.50;;;6.97;;
12171;SDS011;6149;52.418;13.668;2024-02-21T02:11:07;12.70;;;5.50;;
12171;SDS011;6149;52.418;13.668;2024-02-21T02:13:33;14.17;;;5.17;;
12171;SDS011;6149;52.418;13.668;2024-02-21T02:16:00;15.40;;;5.70;;
12171;SDS011;6149;52.418;13.668;2024-02-21T02:18:26;22.83;;;6.23;;
12171;SDS011;6149;52.418;13.668;2024-02-21T02:20:53;17.07;;;5.90;;
12171;SDS011;6149;52.418;13.668;2024-02-21T02:23:23;12.13;;;5.43;;
12171;SDS011;6149;52.418;13.668;2024-02-21T02:25:51;14.93;;;5.27;;
12171;SDS011;6149;52.418;13.668;2024-02-21T02:28:18;13.33;;;5.23;;
12171;SDS011;6149;52.418;13.668;2024-02-21T02:30:45;18.40;;;5.30;;
12171;SDS011;6149;52.418;13.668;2024-02-21T02:33:12;16.40;;;5.50;;
12171;SDS011;6149;52.418;13.668;2024-02-21T02:35:39;14.57;;;5.87;;
12171;SDS011;6149;52.418;13.668;2024-02-21T02:38:06;13.83;;;5.07;;
12171;SDS011;6149;52.418;13.668;2024-02-21T02:40:34;18.13;;;5.23;;
12171;SDS011;6149;52.418;13.668;2024-02-21T02:43:01;13.93;;;5.17;;
12171;SDS011;6149;52.418;13.668;2024-02-21T02:45:28;14.13;;;4.83;;
12171;SDS011;6149;52.418;13.668;2024-02-21T02:47:55;16.57;;;6.10;;
12171;SDS011;6149;52.418;13.668;2024-02-21T02:50:22;17.80;;;6.13;;
12171;SDS011;6149;52.418;13.668;2024-02-21T02:52:50;13.37;;;5.40;;
12171;SDS011;6149;52.418;13.668;2024-02-21T02:55:16;15.43;;;5.77;;
12171;SDS011;6149;52.418;13.668;2024-02-21T02:57:44;13.10;;;5.83;;
12171;SDS011;6149;52.418;13.668;2024-02-21T03:00:12;13.77;;;5.63;;
12171;SDS011;6149;52.418;13.668;2024-02-21T03:02:41;15.70;;;5.33;;
12171;SDS011;6149;52.418;13.668;2024-02-21T03:05:13;20.47;;;6.70;;
12171;SDS011;6149;52.418;13.668;2024-02-21T03:07:42;16.30;;;6.10;;
12171;SDS011;6149;52.418;13.668;2024-02-21T03:10:10;22.13;;;6.00;;
12171;SDS011;6149;52.418;13.668;2024-02-21T03:12:37;18.70;;;6.00;;
12171;SDS011;6149;52.418;13.668;2024-02-21T03:15:06;17.73;;;5.63;;
12171;SDS011;6149;52.418;13.668;2024-02-21T03:17:33;17.23;;;6.57;;
12171;SDS011;6149;52.418;13.668;2024-02-21T03:20:00;16.67;;;6.57;;
12171;SDS011;6149;52.418;13.668;2024-02-21T03:22:30;15.63;;;6.20;;
12171;SDS011;6149;52.418;13.668;2024-02-21T03:24:57;18.90;;;6.70;;
12171;SDS011;6149;52.418;13.668;2024-02-21T03:27:23;15.97;;;6.27;;
12171;SDS011;6149;52.418;13.668;2024-02-21T03:29:50;19.53;;;6.27;;
12171;SDS011;6149;52.418;13.668;2024-02-21T03:32:18;19.90;;;7.03;;
12171;SDS011;6149;52.418;13.668;2024-02-21T03:34:44;18.27;;;6.47;;
12171;SDS011;6149;52.418;13.668;2024-02-21T03:37:11;19.50;;;6.80;;
12171;SDS011;6149;52.418;13.668;2024-02-21T03:39:38;19.47;;;7.00;;
12171;SDS011;6149;52.418;13.668;2024-02-21T03:42:05;16.17;;;6.27;;
12171;SDS011;6149;52.418;13.668;2024-02-21T03:44:32;22.63;;;6.90;;
12171;SDS011;6149;52.418;13.668;2024-02-21T03:46:59;19.20;;;6.43;;
12171;SDS011;6149;52.418;13.668;2024-02-21T03:49:27;20.83;;;7.53;;
12171;SDS011;6149;52.418;13.668;2024-02-21T03:51:54;19.93;;;7.27;;
12171;SDS011;6149;52.418;13.668;2024-02-21T03:54:21;17.77;;;6.73;;
12171;SDS011;6149;52.418;13.668;2024-02-21T03:56:47;23.17;;;6.67;;
12171;SDS011;6149;52.418;13.668;2024-02-21T03:59:14;21.70;;;7.10;;
12171;SDS011;6149;52.418;13.668;2024-02-21T04:01:41;20.07;;;6.87;;
12171;SDS011;6149;52.418;13.668;2024-02-21T04:04:07;17.93;;;7.40;;
12171;SDS011;6149;52.418;13.668;2024-02-21T04:06:35;20.57;;;7.17;;
12171;SDS011;6149;52.418;13.668;2024-02-21T04:09:02;19.90;;;7.03;;
12171;SDS011;6149;52.418;13.668;2024-02-21T04:11:29;18.20;;;7.50;;
12171;SDS011;6149;52.418;13.668;2024-02-21T04:13:56;25.70;;;8.57;;
12171;SDS011;6149;52.418;13.668;2024-02-21T04:16:23;18.17;;;6.83;;
12171;SDS011;6149;52.418;13.668;2024-02-21T04:18:50;17.23;;;7.07;;
12171;SDS011;6149;52.418;13.668;2024-02-21T04:21:17;25.67;;;8.73;;
12171;SDS011;6149;52.418;13.668;2024-02-21T04:23:45;19.10;;;6.83;;
12171;SDS011;6149;52.418;13.668;2024-02-21T04:26:11;25.77;;;8.40;;
12171;SDS011;6149;52.418;13.668;2024-02-21T04:28:38;20.93;;;8.13;;
12171;SDS011;6149;52.418;13.668;2024-02-21T04:31:05;26.57;;;8.07;;
12171;SDS011;6149;52.418;13.668;2024-02-21T04:33:31;17.97;;;8.00;;
12171;SDS011;6149;52.418;13.668;2024-02-21T04:35:58;19.47;;;7.63;;
12171;SDS011;6149;52.418;13.668;2024-02-21T04:38:25;19.13;;;7.70;;
12171;SDS011;6149;52.418;13.668;2024-02-21T04:40:54;19.60;;;8.27;;
12171;SDS011;6149;52.418;13.668;2024-02-21T04:43:23;21.57;;;8.47;;
12171;SDS011;6149;52.418;13.668;2024-02-21T04:45:50;22.70;;;7.60;;
12171;SDS011;6149;52.418;13.668;2024-02-21T04:48:18;16.80;;;7.67;;
12171;SDS011;6149;52.418;13.668;2024-02-21T04:50:45;23.80;;;7.90;;
12171;SDS011;6149;52.418;13.668;2024-02-21T04:53:11;18.47;;;8.33;;
12171;SDS011;6149;52.418;13.668;2024-02-21T04:55:38;15.97;;;8.07;;
12171;SDS011;6149;52.418;13.668;2024-02-21T04:58:06;19.53;;;8.00;;
12171;SDS011;6149;52.418;13.668;2024-02-21T05:00:33;23.27;;;8.53;;
12171;SDS011;6149;52.418;13.668;2024-02-21T05:03:00;17.43;;;7.97;;
12171;SDS011;6149;52.418;13.668;2024-02-21T05:05:26;21.83;;;8.63;;
12171;SDS011;6149;52.418;13.668;2024-02-21T05:07:53;20.47;;;8.30;;
12171;SDS011;6149;52.418;13.668;2024-02-21T05:10:19;20.37;;;8.10;;
12171;SDS011;6149;52.418;13.668;2024-02-21T05:12:46;23.33;;;8.53;;
12171;SDS011;6149;52.418;13.668;2024-02-21T05:15:14;19.20;;;7.40;;
12171;SDS011;6149;52.418;13.668;2024-02-21T05:17:41;20.93;;;9.17;;
12171;SDS011;6149;52.418;13.668;2024-02-21T05:20:08;19.03;;;8.23;;
12171;SDS011;6149;52.418;13.668;2024-02-21T05:22:36;20.83;;;8.30;;
12171;SDS011;6149;52.418;13.668;2024-02-21T05:25:02;21.73;;;8.33;;
12171;SDS011;6149;52.418;13.668;2024-02-21T05:27:30;18.03;;;8.60;;
12171;SDS011;6149;52.418;13.668;2024-02-21T05:29:56;23.07;;;8.70;;
12171;SDS011;6149;52.418;13.668;2024-02-21T05:32:24;23.27;;;9.17;;
12171;SDS011;6149;52.418;13.668;2024-02-21T05:34:52;25.60;;;9.40;;
12171;SDS011;6149;52.418;13.668;2024-02-21T05:37:18;22.23;;;8.50;;
12171;SDS011;6149;52.418;13.668;2024-02-21T05:39:45;23.20;;;8.37;;
12171;SDS011;6149;52.418;13.668;2024-02-21T05:42:11;20.53;;;8.43;;
12171;SDS011;6149;52.418;13.668;2024-02-21T05:44:38;22.63;;;8.87;;
12171;SDS011;6149;52.418;13.668;2024-02-21T05:47:04;20.60;;;7.93;;
12171;SDS011;6149;52.418;13.668;2024-02-21T05:49:36;17.20;;;7.73;;
12171;SDS011;6149;52.418;13.668;2024-02-21T05:52:03;27.77;;;9.13;;
12171;SDS011;6149;52.418;13.668;2024-02-21T05:54:31;17.37;;;7.90;;
12171;SDS011;6149;52.418;13.668;2024-02-21T05:56:57;25.07;;;8.43;;
12171;SDS011;6149;52.418;13.668;2024-02-21T05:59:24;19.93;;;8.70;;
12171;SDS011;6149;52.418;13.668;2024-02-21T06:01:55;19.00;;;8.37;;
12171;SDS011;6149;52.418;13.668;2024-02-21T06:04:22;18.40;;;9.03;;
12171;SDS011;6149;52.418;13.668;2024-02-21T06:06:50;22.77;;;9.07;;
12171;SDS011;6149;52.418;13.668;2024-02-21T06:09:17;22.77;;;8.77;;
12171;SDS011;6149;52.418;13.668;2024-02-21T06:11:43;20.43;;;9.43;;
12171;SDS011;6149;52.418;13.668;2024-02-21T06:14:11;21.57;;;9.23;;
12171;SDS011;6149;52.418;13.668;2024-02-21T06:16:38;20.63;;;8.10;;
12171;SDS011;6149;52.418;13.668;2024-02-21T06:19:04;23.13;;;8.33;;
12171;SDS011;6149;52.418;13.668;2024-02-21T06:21:30;21.37;;;8.73;;
12171;SDS011;6149;52.418;13.668;2024-02-21T06:23:58;15.23;;;8.07;;
12171;SDS011;6149;52.418;13.668;2024-02-21T06:26:25;25.10;;;8.50;;
12171;SDS011;6149;52.418;13.668;2024-02-21T06:28:51;19.27;;;8.80;;
12171;SDS011;6149;52.418;13.668;2024-02-21T06:31:18;20.33;;;8.97;;
12171;SDS011;6149;52.418;13.668;2024-02-21T06:33:44;18.13;;;8.47;;
12171;SDS011;6149;52.418;13.668;2024-02-21T06:36:11;25.97;;;9.07;;
12171;SDS011;6149;52.418;13.668;2024-02-21T06:38:38;18.00;;;8.77;;
12171;SDS011;6149;52.418;13.668;2024-02-21T06:41:06;23.43;;;9.33;;
12171;SDS011;6149;52.418;13.668;2024-02-21T06:43:32;21.17;;;9.10;;
12171;SDS011;6149;52.418;13.668;2024-02-21T06:45:59;18.27;;;8.83;;
12171;SDS011;6149;52.418;13.668;2024-02-21T06:48:25;22.80;;;9.30;;
12171;SDS011;6149;52.418;13.668;2024-02-21T06:50:52;16.77;;;7.83;;
12171;SDS011;6149;52.418;13.668;2024-02-21T06:53:19;19.17;;;9.10;;
12171;SDS011;6149;52.418;13.668;2024-02-21T06:55:45;19.57;;;8.83;;
12171;SDS011;6149;52.418;13.668;2024-02-21T06:58:13;18.43;;;8.53;;
12171;SDS011;6149;52.418;13.668;2024-02-21T07:00:42;21.97;;;8.23;;
12171;SDS011;6149;52.418;13.668;2024-02-21T07:03:09;17.03;;;8.30;;
12171;SDS011;6149;52.418;13.668;2024-02-21T07:05:35;18.60;;;8.30;;
12171;SDS011;6149;52.418;13.668;2024-02-21T07:08:02;19.23;;;8.17;;
12171;SDS011;6149;52.418;13.668;2024-02-21T07:10:29;19.70;;;8.03;;
12171;SDS011;6149;52.418;13.668;2024-02-21T07:13:22;13.40;;;7.83;;
12171;SDS011;6149;52.418;13.668;2024-02-21T07:15:49;15.63;;;7.03;;
12171;SDS011;6149;52.418;13.668;2024-02-21T07:18:16;17.27;;;7.93;;
12171;SDS011;6149;52.418;13.668;2024-02-21T07:20:42;20.83;;;7.70;;
12171;SDS011;6149;52.418;13.668;2024-02-21T07:23:09;19.10;;;8.53;;
12171;SDS011;6149;52.418;13.668;2024-02-21T07:25:35;13.90;;;7.57;;
12171;SDS011;6149;52.418;13.668;2024-02-21T07:28:02;18.47;;;8.10;;
12171;SDS011;6149;52.418;13.668;2024-02-21T07:30:31;18.47;;;7.87;;
12171;SDS011;6149;52.418;13.668;2024-02-21T07:32:57;18.97;;;8.00;;
12171;SDS011;6149;52.418;13.668;2024-02-21T07:35:24;17.23;;;7.43;;
12171;SDS011;6149;52.418;13.668;2024-02-21T07:37:51;19.73;;;7.03;;
12171;SDS011;6149;52.418;13.668;2024-02-21T07:40:17;16.30;;;7.77;;
12171;SDS011;6149;52.418;13.668;2024-02-21T07:42:44;17.53;;;8.33;;
12171;SDS011;6149;52.418;13.668;2024-02-21T07:45:11;18.17;;;8.13;;
12171;SDS011;6149;52.418;13.668;2024-02-21T07:47:38;17.80;;;7.93;;
12171;SDS011;6149;52.418;13.668;2024-02-21T07:50:06;16.17;;;8.20;;
12171;SDS011;6149;52.418;13.668;2024-02-21T07:52:33;18.47;;;8.03;;
12171;SDS011;6149;52.418;13.668;2024-02-21T07:55:00;17.67;;;7.67;;
12171;SDS011;6149;52.418;13.668;2024-02-21T07:57:27;16.53;;;7.60;;
12171;SDS011;6149;52.418;13.668;2024-02-21T07:59:54;18.90;;;7.83;;
12171;SDS011;6149;52.418;13.668;2024-02-21T08:02:21;18.50;;;8.17;;
12171;SDS011;6149;52.418;13.668;2024-02-21T08:04:48;19.70;;;7.93;;
12171;SDS011;6149;52.418;13.668;2024-02-21T08:07:15;13.53;;;7.57;;
12171;SDS011;6149;52.418;13.668;2024-02-21T08:09:43;17.30;;;7.40;;
12171;SDS011;6149;52.418;13.668;2024-02-21T08:12:09;15.03;;;7.73;;
12171;SDS011;6149;52.418;13.668;2024-02-21T08:14:36;18.23;;;8.00;;
12171;SDS011;6149;52.418;13.668;2024-02-21T08:17:03;18.23;;;7.60;;
12171;SDS011;6149;52.418;13.668;2024-02-21T08:19:29;17.23;;;8.00;;
12171;SDS011;6149;52.418;13.668;2024-02-21T08:21:57;19.57;;;7.93;;
12171;SDS011;6149;52.418;13.668;2024-02-21T08:24:24;22.23;;;8.53;;
12171;SDS011;6149;52.418;13.668;2024-02-21T08:26:51;20.47;;;8.10;;
12171;SDS011;6149;52.418;13.668;2024-02-21T08:29:18;15.63;;;7.73;;
12171;SDS011;6149;52.418;13.668;2024-02-21T08:31:45;15.17;;;7.83;;
12171;SDS011;6149;52.418;13.668;2024-02-21T08:34:11;17.73;;;8.20;;
12171;SDS011;6149;52.418;13.668;2024-02-21T08:36:38;16.40;;;8.37;;
12171;SDS011;6149;52.418;13.668;2024-02-21T08:39:07;19.57;;;8.50;;
12171;SDS011;6149;52.418;13.668;2024-02-21T08:41:34;20.27;;;8.50;;
12171;SDS011;6149;52.418;13.668;2024-02-21T08:44:01;16.33;;;7.90;;
12171;SDS011;6149;52.418;13.668;2024-02-21T08:46:28;21.47;;;8.60;;
12171;SDS011;6149;52.418;13.668;2024-02-21T08:48:54;17.77;;;8.57;;
12171;SDS011;6149;52.418;13.668;2024-02-21T08:51:21;17.73;;;8.07;;
12171;SDS011;6149;52.418;13.668;2024-02-21T08:53:48;18.53;;;8.47;;
12171;SDS011;6149;52.418;13.668;2024-02-21T08:56:16;16.07;;;8.57;;
12171;SDS011;6149;52.418;13.668;2024-02-21T08:58:42;16.70;;;8.80;;
12171;SDS011;6149;52.418;13.668;2024-02-21T09:01:09;16.33;;;8.50;;
12171;SDS011;6149;52.418;13.668;2024-02-21T09:03:36;20.10;;;8.97;;
12171;SDS011;6149;52.418;13.668;2024-02-21T09:06:04;19.07;;;8.63;;
12171;SDS011;6149;52.418;13.668;2024-02-21T09:08:31;20.23;;;8.70;;
12171;SDS011;6149;52.418;13.668;2024-02-21T09:10:58;14.70;;;8.60;;
12171;SDS011;6149;52.418;13.668;2024-02-21T09:13:27;13.30;;;7.70;;
12171;SDS011;6149;52.418;13.668;2024-02-21T09:15:55;16.57;;;8.17;;
12171;SDS011;6149;52.418;13.668;2024-02-21T09:18:21;17.57;;;8.23;;
12171;SDS011;6149;52.418;13.668;2024-02-21T09:20:48;15.97;;;8.10;;
12171;SDS011;6149;52.418;13.668;2024-02-21T09:23:14;16.87;;;9.23;;
12171;SDS011;6149;52.418;13.668;2024-02-21T09:25:41;15.77;;;8.37;;
12171;SDS011;6149;52.418;13.668;2024-02-21T09:28:08;14.43;;;8.00;;
12171;SDS011;6149;52.418;13.668;2024-02-21T09:30:36;12.27;;;7.40;;
12171;SDS011;6149;52.418;13.668;2024-02-21T09:33:04;15.57;;;7.77;;
12171;SDS011;6149;52.418;13.668;2024-02-21T09:35:31;14.13;;;7.00;;
12171;SDS011;6149;52.418;13.668;2024-02-21T09:37:59;18.80;;;7.97;;
12171;SDS011;6149;52.418;13.668;2024-02-21T09:40:26;16.77;;;8.47;;
12171;SDS011;6149;52.418;13.668;2024-02-21T09:42:55;16.13;;;8.43;;
12171;SDS011;6149;52.418;13.668;2024-02-21T09:45:31;13.77;;;7.53;;
12171;SDS011;6149;52.418;13.668;2024-02-21T09:48:04;19.90;;;8.43;;
12171;SDS011;6149;52.418;13.668;2024-02-21T09:50:56;14.30;;;7.93;;
12171;SDS011;6149;52.418;13.668;2024-02-21T09:53:24;17.27;;;8.60;;
12171;SDS011;6149;52.418;13.668;2024-02-21T09:55:51;14.53;;;7.70;;
12171;SDS011;6149;52.418;13.668;2024-02-21T09:58:18;16.87;;;7.97;;
12171;SDS011;6149;52.418;13.668;2024-02-21T10:00:45;17.33;;;7.53;;
12171;SDS011;6149;52.418;13.668;2024-02-21T10:03:13;14.27;;;7.87;;
12171;SDS011;6149;52.418;13.668;2024-02-21T10:05:45;17.23;;;8.27;;
12171;SDS011;6149;52.418;13.668;2024-02-21T10:08:15;14.20;;;7.83;;
12171;SDS011;6149;52.418;13.668;2024-02-21T10:10:42;12.47;;;7.60;;
12171;SDS011;6149;52.418;13.668;2024-02-21T10:13:09;16.70;;;8.10;;
12171;SDS011;6149;52.418;13.668;2024-02-21T10:15:36;15.17;;;7.97;;
12171;SDS011;6149;52.418;13.668;2024-02-21T10:18:03;17.07;;;7.53;;
12171;SDS011;6149;52.418;13.668;2024-02-21T10:20:33;15.07;;;7.87;;
12171;SDS011;6149;52.418;13.668;2024-02-21T10:23:00;15.77;;;8.13;;
12171;SDS011;6149;52.418;13.668;2024-02-21T10:25:27;15.80;;;7.57;;
12171;SDS011;6149;52.418;13.668;2024-02-21T10:27:54;11.37;;;7.90;;
12171;SDS011;6149;52.418;13.668;2024-02-21T10:30:21;11.60;;;7.63;;
12171;SDS011;6149;52.418;13.668;2024-02-21T10:32:48;14.77;;;8.40;;
12171;SDS011;6149;52.418;13.668;2024-02-21T10:35:25;14.67;;;7.57;;
12171;SDS011;6149;52.418;13.668;2024-02-21T10:37:54;14.03;;;8.13;;
12171;SDS011;6149;52.418;13.668;2024-02-21T10:40:22;16.30;;;7.90;;
12171;SDS011;6149;52.418;13.668;2024-02-21T10:42:51;12.57;;;7.67;;
12171;SDS011;6149;52.418;13.668;2024-02-21T10:45:26;15.67;;;8.70;;
12171;SDS011;6149;52.418;13.668;2024-02-21T10:48:01;16.40;;;8.20;;
12171;SDS011;6149;52.418;13.668;2024-02-21T10:50:36;13.40;;;7.43;;
12171;SDS011;6149;52.418;13.668;2024-02-21T10:53:23;13.70;;;7.87;;
12171;SDS011;6149;52.418;13.668;2024-02-21T10:56:06;14.77;;;7.33;;
12171;SDS011;6149;52.418;13.668;2024-02-21T10:58:48;13.80;;;7.90;;
12171;SDS011;6149;52.418;13.668;2024-02-21T11:01:15;13.67;;;7.77;;
12171;SDS011;6149;52.418;13.668;2024-02-21T11:03:43;13.47;;;7.80;;
12171;SDS011;6149;52.418;13.668;2024-02-21T11:06:12;12.97;;;7.67;;
12171;SDS011;6149;52.418;13.668;2024-02-21T11:08:41;13.07;;;7.60;;
12171;SDS011;6149;52.418;13.668;2024-02-21T11:11:07;14.30;;;7.70;;
12171;SDS011;6149;52.418;13.668;2024-02-21T11:13:36;12.27;;;7.40;;
12171;SDS011;6149;52.418;13.668;2024-02-21T11:16:07;13.57;;;7.27;;
12171;SDS011;6149;52.418;13.668;2024-02-21T11:18:35;18.03;;;7.67;;
12171;SDS011;6149;52.418;13.668;2024-02-21T11:21:02;11.97;;;6.93;;
12171;SDS011;6149;52.418;13.668;2024-02-21T11:23:32;14.00;;;7.20;;
12171;SDS011;6149;52.418;13.668;2024-02-21T11:26:05;12.57;;;6.97;;
12171;SDS011;6149;52.418;13.668;2024-02-21T11:28:32;13.10;;;7.60;;
12171;SDS011;6149;52.418;13.668;2024-02-21T11:31:09;11.93;;;6.87;;
12171;SDS011;6149;52.418;13.668;2024-02-21T11:33:39;12.17;;;6.97;;
12171;SDS011;6149;52.418;13.668;2024-02-21T11:36:10;12.43;;;6.63;;
12171;SDS011;6149;52.418;13.668;2024-02-21T11:38:37;9.50;;;5.67;;
12171;SDS011;6149;52.418;13.668;2024-02-21T11:41:07;10.30;;;6.30;;
12171;SDS011;6149;52.418;13.668;2024-02-21T11:43:34;11.33;;;6.87;;
12171;SDS011;6149;52.418;13.668;2024-02-21T11:46:01;16.37;;;8.47;;
12171;SDS011;6149;52.418;13.668;2024-02-21T11:48:28;12.00;;;6.33;;
12171;SDS011;6149;52.418;13.668;2024-02-21T11:50:55;8.53;;;5.53;;
12171;SDS011;6149;52.418;13.668;2024-02-21T11:53:23;11.93;;;5.67;;
12171;SDS011;6149;52.418;13.668;2024-02-21T11:55:49;9.87;;;6.33;;
12171;SDS011;6149;52.418;13.668;2024-02-21T11:58:17;11.83;;;5.67;;
12171;SDS011;6149;52.418;13.668;2024-02-21T12:00:44;11.63;;;6.20;;
12171;SDS011;6149;52.418;13.668;2024-02-21T12:03:10;9.67;;;5.77;;
12171;SDS011;6149;52.418;13.668;2024-02-21T12:05:37;8.53;;;5.47;;
12171;SDS011;6149;52.418;13.668;2024-02-21T12:08:04;8.57;;;5.13;;
12171;SDS011;6149;52.418;13.668;2024-02-21T12:10:31;7.73;;;5.43;;
12171;SDS011;6149;52.418;13.668;2024-02-21T12:13:07;7.63;;;4.83;;
12171;SDS011;6149;52.418;13.668;2024-02-21T12:15:36;7.77;;;5.03;;
12171;SDS011;6149;52.418;13.668;2024-02-21T12:18:04;9.83;;;5.27;;
12171;SDS011;6149;52.418;13.668;2024-02-21T12:20:31;6.90;;;4.77;;
12171;SDS011;6149;52.418;13.668;2024-02-21T12:22:59;7.80;;;4.13;;
12171;SDS011;6149;52.418;13.668;2024-02-21T12:25:26;7.37;;;4.83;;
12171;SDS011;6149;52.418;13.668;2024-02-21T12:27:54;9.87;;;5.20;;
12171;SDS011;6149;52.418;13.668;2024-02-21T12:30:21;6.83;;;4.70;;
12171;SDS011;6149;52.418;13.668;2024-02-21T12:32:49;8.20;;;4.90;;
12171;SDS011;6149;52.418;13.668;2024-02-21T12:35:15;9.33;;;4.63;;
12171;SDS011;6149;52.418;13.668;2024-02-21T12:37:42;8.83;;;4.70;;
12171;SDS011;6149;52.418;13.668;2024-02-21T12:40:10;10.07;;;4.90;;
12171;SDS011;6149;52.418;13.668;2024-02-21T12:42:38;9.40;;;5.00;;
12171;SDS011;6149;52.418;13.668;2024-02-21T12:45:05;7.87;;;4.50;;
12171;SDS011;6149;52.418;13.668;2024-02-21T12:47:32;8.67;;;4.73;;
12171;SDS011;6149;52.418;13.668;2024-02-21T12:50:00;9.13;;;4.73;;
12171;SDS011;6149;52.418;13.668;2024-02-21T12:52:28;8.50;;;4.87;;
12171;SDS011;6149;52.418;13.668;2024-02-21T12:54:55;8.00;;;4.63;;
12171;SDS011;6149;52.418;13.668;2024-02-21T12:57:23;11.67;;;4.67;;
12171;SDS011;6149;52.418;13.668;2024-02-21T12:59:50;9.37;;;4.70;;
12171;SDS011;6149;52.418;13.668;2024-02-21T13:02:17;7.57;;;4.67;;
12171;SDS011;6149;52.418;13.668;2024-02-21T13:04:44;7.67;;;4.80;;
12171;SDS011;6149;52.418;13.668;2024-02-21T13:07:12;8.27;;;5.20;;
12171;SDS011;6149;52.418;13.668;2024-02-21T13:09:39;12.93;;;6.13;;
12171;SDS011;6149;52.418;13.668;2024-02-21T13:12:06;8.30;;;5.13;;
12171;SDS011;6149;52.418;13.668;2024-02-21T13:14:34;7.83;;;5.20;;
12171;SDS011;6149;52.418;13.668;2024-02-21T13:17:01;8.40;;;5.30;;
12171;SDS011;6149;52.418;13.668;2024-02-21T13:19:28;8.23;;;4.70;;
12171;SDS011;6149;52.418;13.668;2024-02-21T13:21:55;8.70;;;5.20;;
12171;SDS011;6149;52.418;13.668;2024-02-21T13:24:22;10.80;;;5.67;;
12171;SDS011;6149;52.418;13.668;2024-02-21T13:26:49;10.43;;;5.53;;
12171;SDS011;6149;52.418;13.668;2024-02-21T13:29:16;9.13;;;5.10;;
12171;SDS011;6149;52.418;13.668;2024-02-21T13:31:43;9.27;;;5.00;;
12171;SDS011;6149;52.418;13.668;2024-02-21T13:34:10;5.50;;;4.30;;
12171;SDS011;6149;52.418;13.668;2024-02-21T13:36:36;8.70;;;4.83;;
12171;SDS011;6149;52.418;13.668;2024-02-21T13:39:03;9.10;;;5.00;;
12171;SDS011;6149;52.418;13.668;2024-02-21T13:41:32;9.00;;;4.60;;
12171;SDS011;6149;52.418;13.668;2024-02-21T13:43:59;9.07;;;4.93;;
12171;SDS011;6149;52.418;13.668;2024-02-21T13:46:26;9.20;;;4.70;;
12171;SDS011;6149;52.418;13.668;2024-02-21T13:48:53;7.00;;;4.37;;
12171;SDS011;6149;52.418;13.668;2024-02-21T13:51:30;8.17;;;4.60;;
12171;SDS011;6149;52.418;13.668;2024-02-21T13:53:57;8.27;;;4.50;;
12171;SDS011;6149;52.418;13.668;2024-02-21T13:56:24;11.03;;;4.50;;
12171;SDS011;6149;52.418;13.668;2024-02-21T13:58:52;10.00;;;4.60;;
12171;SDS011;6149;52.418;13.668;2024-02-21T14:01:19;7.83;;;4.30;;
12171;SDS011;6149;52.418;13.668;2024-02-21T14:03:45;7.80;;;3.90;;
12171;SDS011;6149;52.418;13.668;2024-02-21T14:06:12;8.60;;;4.47;;
12171;SDS011;6149;52.418;13.668;2024-02-21T14:08:38;8.33;;;4.50;;
12171;SDS011;6149;52.418;13.668;2024-02-21T14:11:05;7.07;;;4.20;;
12171;SDS011;6149;52.418;13.668;2024-02-21T14:13:32;6.20;;;3.83;;
12171;SDS011;6149;52.418;13.668;2024-02-21T14:16:00;10.23;;;4.30;;
12171;SDS011;6149;52.418;13.668;2024-02-21T14:18:26;6.90;;;3.97;;
12171;SDS011;6149;52.418;13.668;2024-02-21T14:20:53;7.73;;;4.07;;
12171;SDS011;6149;52.418;13.668;2024-02-21T14:23:19;6.00;;;3.57;;
12171;SDS011;6149;52.418;13.668;2024-02-21T14:25:46;7.33;;;3.57;;
12171;SDS011;6149;52.418;13.668;2024-02-21T14:28:13;5.63;;;3.17;;
12171;SDS011;6149;52.418;13.668;2024-02-21T14:30:39;6.77;;;3.57;;
12171;SDS011;6149;52.418;13.668;2024-02-21T14:33:07;7.77;;;3.70;;
12171;SDS011;6149;52.418;13.668;2024-02-21T14:35:34;7.33;;;3.57;;
12171;SDS011;6149;52.418;13.668;2024-02-21T14:38:00;7.13;;;3.40;;